Huvudsida
METAR-TAF:

METAR-TAF

Flygplatser :

Sharurah, Saudiarabien

latitud: 17-28N, longitud: 047-07E, höjd: 720 m

Aktuellt väderrapport

Denna rapport gjordes för 43 minuter sedan, klockan 22:00 UTC
Vind 13 kt från ost/sydost
Temperatur 25°C
Fuktighet 21%
Tryck 1011 hPa
Sikt 10 km eller mer
Inga moln under 1 500 m eller inga cumulonimbus

METAR: OESH 192200Z 11013KT CAVOK 25/01 Q1011 NOSIG

Tid: 01:43 (22:43 UTC)

Väderprognos

Denna rapport gjordes för 11 timmar och 43 minuter sedan, klockan 11:00 UTC
Prognos gäller från 19 kl. 12 UTC till 20 kl. 18 UTC
Vind 12 kt från ost
Sikt: 7000 m
Blir
från 19 kl. 18 UTC till 19 kl. 20 UTC
Vind 10 kt från syd/sydost

TAF: OESH 191100Z 1912/2018 09012KT 7000 NSC BECMG 1918/1920 16010KT

Aktuella väderrapporter och prognoser från 4000 flygplatser (METAR- och TAF-rapporter).

De tillgängliga stationerna syns som gula och röda prickar på kartan.

För musen över prickarna för att se namnen på stationerna.

Klicka sedan för att få väderrapporter och prognoser.

För att ändra kartan: Klicka på de gröna knapparna med ett svart kors på för att zooma in; den gröna knappen med ett streck på för att zooma ut; eller på de gröna pilarna för angränsande kartor.


METAR-TAF: